Airfield :
LOGIN :

Register | Disclaimer

   EN    FR    IT 

 










Legend :    VFR   Marginal VFR   IFR   Intensive IFR   Very Intensive IFR
Visi :
Ceiling :
>= 8 km
>= 3000ft
5 to 8 km
1000 to 3000 ft
1500m to 5 km
500 to 1000 ft
800 to 1500m
200 to 500 ft
< 800m
< 200 ft
Symbols :   Thunderstorms  Fog  Heavy snow  Heavy precipitations  Wind > 20 kt
SIGMETs :     Misc.  Thunderstorms  Icing  Turbulence  Mountain Waves  Volcanic Ashes






- Airport Elevation : 286 ft
- IATA code : TRF


ENTO - Sandefjord , Torp

CURRENT METAR :
  • 261350Z 10006KT 060V180 9999 SCT040TCU 25/12 Q1019 NOSIG

EXPIRED METARs :
  • 261320Z 10006KT 060V130 9999 SCT040TCU 24/13 Q1020 NOSIG
  • 261250Z 11007KT 080V170 9999 SCT040TCU 25/13 Q1020 NOSIG
  • 261220Z 12006KT 080V170 9999 FEW040TCU 25/13 Q1021 NOSIG
  • 261150Z 11006KT 060V160 9999 FEW040TCU 24/13 Q1021 NOSIG
  • 261120Z 09005KT 050V150 CAVOK 24/13 Q1021 NOSIG
  • 261050Z 07004KT 360V170 CAVOK 23/13 Q1022 NOSIG
  • 261020Z 09005KT 010V180 CAVOK 23/14 Q1022 NOSIG
  • 260950Z 11004KT 040V150 CAVOK 22/15 Q1022 NOSIG
  • 260920Z 11004KT 060V160 CAVOK 21/14 Q1022 NOSIG

TAF TAF ENTO
Valid from the 26 at 12:00 until the 27 at 12:00 UTC


261100Z 2612/2712 11008KT 9999 FEW040
TEMPO 2614/2704 SHRA TS SCT040CB
TEMPO 2615/2620 15018G38KT
PROB40 2704/2708 BKN010



MET'MAP, your aeronautical weather chart ! - Copyright ORBIFLY December 2007 - Disclaimer

ORBIFLY MET'MAP TEAM :

Programming & Development : Alexandra Zaïnal
Original concept : Baudouin d'Aumeries
Technical & hardware support : Manuel Goepfert
Assistance : Marc-Olivier Méhu




SOURCES & CREDITS :

   NOAA